Time,TemperatureF,DewpointF,PressureIn,WindDirection,WindDirectionDegrees,WindSpeedMPH,WindSpeedGustMPH,Humidity,HourlyPrecipIn,Conditions,Clouds,dailyrainin,SolarRadiationWatts/m^2,SoftwareType,DateUTC
2013-03-15 00:00:00,47.2,28.5,30.82,SE,126,0.0,2.0,48,0.00,,,0.00,0.00,VWS V14.00,2013-03-15 06:00:00,
2013-03-15 00:05:00,47.0,28.3,30.80,SE,126,0.0,0.0,48,0.00,,,0.00,0.00,VWS V14.00,2013-03-15 06:05:00,
2013-03-15 00:10:00,47.0,28.3,30.80,SE,126,0.0,2.0,48,0.00,,,0.00,0.00,VWS V14.00,2013-03-15 06:10:00,
2013-03-15 00:15:00,47.1,28.9,30.80,SE,126,0.0,2.0,49,0.00,,,0.00,0.00,VWS V14.00,2013-03-15 06:15:00,
2013-03-15 00:20:00,47.0,28.3,30.80,SE,126,0.0,0.0,48,0.00,,,0.00,0.00,VWS V14.00,2013-03-15 06:20:00,
2013-03-15 00:25:00,47.1,28.9,30.80,SE,126,2.0,2.0,49,0.00,,,0.00,0.00,VWS V14.00,2013-03-15 06:25:00,
2013-03-15 00:30:00,47.2,29.0,30.80,SE,126,0.0,2.0,49,0.00,,,0.00,0.00,VWS V14.00,2013-03-15 06:30:00,
2013-03-15 00:35:00,47.2,29.0,30.80,SE,126,0.0,1.0,49,0.00,,,0.00,0.00,VWS V14.00,2013-03-15 06:35:00,
2013-03-15 00:40:00,47.2,29.5,30.80,SE,126,0.0,4.0,50,0.00,,,0.00,0.00,VWS V14.00,2013-03-15 06:40:00,
2013-03-15 00:45:00,47.2,29.5,30.80,SE,126,1.0,4.0,50,0.00,,,0.00,0.00,VWS V14.00,2013-03-15 06:45:00,
2013-03-15 00:50:00,47.3,29.1,30.79,SE,126,0.0,3.0,49,0.00,,,0.00,0.00,VWS V14.00,2013-03-15 06:50:00,
2013-03-15 00:55:00,47.5,29.3,30.79,SE,126,3.0,5.0,49,0.00,,,0.00,0.00,VWS V14.00,2013-03-15 06:55:00,
2013-03-15 01:00:00,47.8,29.1,30.79,SE,126,2.0,5.0,48,0.00,,,0.00,0.00,VWS V14.00,2013-03-15 07:00:00,
2013-03-15 01:05:00,48.4,29.6,30.77,SE,126,0.0,1.0,48,0.00,,,0.00,0.00,VWS V14.00,2013-03-15 07:05:00,
2013-03-15 01:10:00,48.7,29.4,30.75,SE,126,2.0,5.0,47,0.00,,,0.00,0.00,VWS V14.00,2013-03-15 07:10:00,
2013-03-15 01:15:00,48.8,29.5,30.76,SE,126,2.0,5.0,47,0.00,,,0.00,0.00,VWS V14.00,2013-03-15 07:15:00,
2013-03-15 01:20:00,48.9,29.6,30.76,SE,126,0.0,2.0,47,0.00,,,0.00,0.00,VWS V14.00,2013-03-15 07:20:00,
2013-03-15 01:25:00,48.7,29.9,30.75,SE,126,0.0,2.0,48,0.00,,,0.00,0.00,VWS V14.00,2013-03-15 07:25:00,
2013-03-15 01:30:00,48.4,29.6,30.77,SE,126,4.0,4.0,48,0.00,,,0.00,0.00,VWS V14.00,2013-03-15 07:30:00,
2013-03-15 01:35:00,48.0,29.8,30.77,SE,126,0.0,0.0,49,0.00,,,0.00,0.00,VWS V14.00,2013-03-15 07:35:00,
2013-03-15 01:40:00,47.9,29.7,30.76,SE,126,0.0,3.0,49,0.00,,,0.00,0.00,VWS V14.00,2013-03-15 07:40:00,
2013-03-15 01:45:00,47.7,30.0,30.76,SE,126,4.0,5.0,50,0.00,,,0.00,0.00,VWS V14.00,2013-03-15 07:45:00,
2013-03-15 01:50:00,47.7,30.5,30.76,SE,134,5.0,6.0,51,0.00,,,0.00,0.00,VWS V14.00,2013-03-15 07:50:00,
2013-03-15 01:55:00,48.0,30.3,30.76,SE,128,5.0,7.0,50,0.00,,,0.00,0.00,VWS V14.00,2013-03-15 07:55:00,
2013-03-15 02:00:00,48.2,30.5,30.76,SE,142,5.0,7.0,50,0.00,,,0.00,0.00,VWS V14.00,2013-03-15 08:00:00,
2013-03-15 02:05:00,48.1,30.4,30.74,SE,140,3.0,5.0,50,0.00,,,0.00,0.00,VWS V14.00,2013-03-15 08:05:00,
2013-03-15 02:10:00,48.5,30.7,30.75,SE,129,3.0,6.0,50,0.00,,,0.00,0.00,VWS V14.00,2013-03-15 08:10:00,
2013-03-15 02:15:00,48.5,30.7,30.75,SE,138,3.0,6.0,50,0.00,,,0.00,0.00,VWS V14.00,2013-03-15 08:15:00,
2013-03-15 02:20:00,48.5,30.7,30.75,SE,142,5.0,6.0,50,0.00,,,0.00,0.00,VWS V14.00,2013-03-15 08:20:00,
2013-03-15 02:25:00,48.6,30.8,30.75,South,175,3.0,9.0,50,0.00,,,0.00,0.00,VWS V14.00,2013-03-15 08:25:00,
2013-03-15 02:30:00,48.7,31.4,30.75,South,171,1.0,9.0,51,0.00,,,0.00,0.00,VWS V14.00,2013-03-15 08:30:00,
2013-03-15 02:35:00,48.7,30.9,30.75,SSW,194,0.0,0.0,50,0.00,,,0.00,0.00,VWS V14.00,2013-03-15 08:35:00,
2013-03-15 02:40:00,48.6,30.3,30.75,SSE,161,2.0,4.0,49,0.00,,,0.00,0.00,VWS V14.00,2013-03-15 08:40:00,
2013-03-15 02:45:00,48.9,31.1,30.76,NW,315,3.0,6.0,50,0.00,,,0.00,0.00,VWS V14.00,2013-03-15 08:45:00,
2013-03-15 02:50:00,48.7,30.9,30.76,NW,317,0.0,0.0,50,0.00,,,0.00,0.00,VWS V14.00,2013-03-15 08:50:00,
2013-03-15 02:55:00,48.5,31.2,30.77,NW,317,4.0,4.0,51,0.00,,,0.00,0.00,VWS V14.00,2013-03-15 08:55:00,
2013-03-15 03:00:00,48.4,31.6,30.77,NW,313,0.0,5.0,52,0.00,,,0.00,0.00,VWS V14.00,2013-03-15 09:00:00,
2013-03-15 03:05:00,48.1,30.8,30.77,North,355,0.0,0.0,51,0.00,,,0.00,0.00,VWS V14.00,2013-03-15 09:05:00,
2013-03-15 03:10:00,47.9,31.1,30.77,North,355,2.0,5.0,52,0.00,,,0.00,0.00,VWS V14.00,2013-03-15 09:10:00,
2013-03-15 03:15:00,47.9,30.7,30.77,North,355,0.0,5.0,51,0.00,,,0.00,0.00,VWS V14.00,2013-03-15 09:15:00,
2013-03-15 03:20:00,48.0,30.8,30.77,North,355,0.0,0.0,51,0.00,,,0.00,0.00,VWS V14.00,2013-03-15 09:20:00,
2013-03-15 03:25:00,48.3,31.0,30.77,North,5,0.0,5.0,51,0.00,,,0.00,0.00,VWS V14.00,2013-03-15 09:25:00,
2013-03-15 03:30:00,48.4,31.6,30.77,North,5,0.0,5.0,52,0.00,,,0.00,0.00,VWS V14.00,2013-03-15 09:30:00,
2013-03-15 03:35:00,48.4,31.6,30.77,North,5,0.0,0.0,52,0.00,,,0.00,0.00,VWS V14.00,2013-03-15 09:35:00,
2013-03-15 03:40:00,48.4,31.6,30.77,North,5,0.0,1.0,52,0.00,,,0.00,0.00,VWS V14.00,2013-03-15 09:40:00,
2013-03-15 03:45:00,48.3,32.4,30.77,North,5,1.0,4.0,54,0.00,,,0.00,0.00,VWS V14.00,2013-03-15 09:45:00,
2013-03-15 03:50:00,48.4,32.5,30.77,NNW,333,3.0,5.0,54,0.00,,,0.00,0.00,VWS V14.00,2013-03-15 09:50:00,
2013-03-15 03:55:00,48.8,32.4,30.76,NW,316,2.0,10.0,53,0.00,,,0.00,0.00,VWS V14.00,2013-03-15 09:55:00,
2013-03-15 04:00:00,49.3,32.4,30.76,NNW,346,6.0,10.0,52,0.00,,,0.00,0.00,VWS V14.00,2013-03-15 10:00:00,
2013-03-15 04:05:00,49.9,32.5,30.76,NNW,331,4.0,8.0,51,0.00,,,0.00,0.00,VWS V14.00,2013-03-15 10:05:00,
2013-03-15 04:10:00,50.1,32.2,30.76,NNW,337,6.0,9.0,50,0.00,,,0.00,0.00,VWS V14.00,2013-03-15 10:10:00,
2013-03-15 04:15:00,50.5,32.1,30.76,NNW,329,8.0,9.0,49,0.00,,,0.00,0.00,VWS V14.00,2013-03-15 10:15:00,
2013-03-15 04:20:00,50.6,31.6,30.75,NW,323,4.0,7.0,48,0.00,,,0.00,0.00,VWS V14.00,2013-03-15 10:20:00,
2013-03-15 04:25:00,50.9,31.9,30.75,NNW,344,4.0,10.0,48,0.00,,,0.00,0.00,VWS V14.00,2013-03-15 10:25:00,
2013-03-15 04:30:00,50.8,31.8,30.75,NNW,342,2.0,10.0,48,0.00,,,0.00,0.00,VWS V14.00,2013-03-15 10:30:00,
2013-03-15 04:35:00,50.7,31.7,30.75,NNW,348,2.0,2.0,48,0.00,,,0.00,0.00,VWS V14.00,2013-03-15 10:35:00,
2013-03-15 04:40:00,50.6,31.6,30.75,NNW,348,5.0,5.0,48,0.00,,,0.00,0.00,VWS V14.00,2013-03-15 10:40:00,
2013-03-15 04:45:00,50.5,31.6,30.75,NNW,348,0.0,5.0,48,0.00,,,0.00,0.00,VWS V14.00,2013-03-15 10:45:00,
2013-03-15 04:50:00,50.4,31.5,30.76,NNW,348,0.0,2.0,48,0.00,,,0.00,0.00,VWS V14.00,2013-03-15 10:50:00,
2013-03-15 04:55:00,50.2,31.8,30.76,NNW,348,3.0,4.0,49,0.00,,,0.00,0.00,VWS V14.00,2013-03-15 10:55:00,
2013-03-15 05:00:00,49.9,31.5,30.76,NNW,348,0.0,4.0,49,0.00,,,0.00,0.00,VWS V14.00,2013-03-15 11:00:00,
2013-03-15 05:05:00,49.7,31.8,30.76,NNW,348,0.0,0.0,50,0.00,,,0.00,0.00,VWS V14.00,2013-03-15 11:05:00,
2013-03-15 05:10:00,49.7,31.3,30.76,NNW,348,0.0,2.0,49,0.00,,,0.00,0.00,VWS V14.00,2013-03-15 11:10:00,
2013-03-15 05:15:00,49.7,31.8,30.76,NNW,348,0.0,2.0,50,0.00,,,0.00,0.00,VWS V14.00,2013-03-15 11:15:00,
2013-03-15 05:20:00,49.7,31.8,30.76,NNW,348,0.0,0.0,50,0.00,,,0.00,0.00,VWS V14.00,2013-03-15 11:20:00,
2013-03-15 05:25:00,49.6,32.2,30.76,NNW,348,0.0,1.0,51,0.00,,,0.00,0.00,VWS V14.00,2013-03-15 11:25:00,
2013-03-15 05:30:00,49.5,31.6,30.76,NNW,348,1.0,2.0,50,0.00,,,0.00,0.00,VWS V14.00,2013-03-15 11:30:00,
2013-03-15 05:35:00,49.5,31.6,30.76,NNW,348,0.0,0.0,50,0.00,,,0.00,0.00,VWS V14.00,2013-03-15 11:35:00,
2013-03-15 05:40:00,49.7,30.8,30.77,NNW,348,0.0,3.0,48,0.00,,,0.00,0.00,VWS V14.00,2013-03-15 11:40:00,
2013-03-15 05:45:00,50.1,31.2,30.77,North,355,2.0,5.0,48,0.00,,,0.00,0.00,VWS V14.00,2013-03-15 11:45:00,
2013-03-15 05:50:00,50.6,31.6,30.77,North,10,0.0,4.0,48,0.00,,,0.00,0.00,VWS V14.00,2013-03-15 11:50:00,
2013-03-15 05:55:00,50.7,31.7,30.78,SSE,156,0.0,6.0,48,0.00,,,0.00,0.00,VWS V14.00,2013-03-15 11:55:00,
2013-03-15 06:00:00,51.2,30.6,30.77,East,97,5.0,14.0,45,0.00,,,0.00,0.00,VWS V14.00,2013-03-15 12:00:00,
2013-03-15 06:05:00,51.7,31.6,30.80,WNW,293,10.0,12.0,46,0.00,,,0.00,0.00,VWS V14.00,2013-03-15 12:05:00,
2013-03-15 06:10:00,51.8,31.7,30.80,WSW,251,10.0,15.0,46,0.00,,,0.00,0.00,VWS V14.00,2013-03-15 12:10:00,
2013-03-15 06:15:00,51.8,31.1,30.80,NW,309,5.0,15.0,45,0.00,,,0.00,0.00,VWS V14.00,2013-03-15 12:15:00,
2013-03-15 06:20:00,52.0,31.9,30.81,SSE,157,17.0,17.0,46,0.00,,,0.00,0.00,VWS V14.00,2013-03-15 12:20:00,
2013-03-15 06:25:00,51.9,31.8,30.80,SSW,204,2.0,17.0,46,0.00,,,0.00,0.00,VWS V14.00,2013-03-15 12:25:00,
2013-03-15 06:30:00,51.9,31.8,30.80,SSE,164,3.0,17.0,46,0.00,,,0.00,0.00,VWS V14.00,2013-03-15 12:30:00,
2013-03-15 06:35:00,51.9,31.8,30.81,South,180,0.0,5.0,46,0.00,,,0.00,0.00,VWS V14.00,2013-03-15 12:35:00,
2013-03-15 06:40:00,51.7,32.7,30.82,WNW,296,4.0,13.0,48,0.00,,,0.00,0.00,VWS V14.00,2013-03-15 12:40:00,
2013-03-15 06:45:00,51.2,32.2,30.83,NW,311,5.0,13.0,48,0.00,,,0.00,0.00,VWS V14.00,2013-03-15 12:45:00,
2013-03-15 06:50:00,50.9,31.9,30.82,WSW,252,3.0,13.0,48,0.00,,,0.00,0.00,VWS V14.00,2013-03-15 12:50:00,
2013-03-15 06:55:00,51.0,32.0,30.83,North,350,10.0,16.0,48,0.00,,,0.00,0.00,VWS V14.00,2013-03-15 12:55:00,
2013-03-15 07:00:00,51.1,32.6,30.83,WNW,286,11.0,17.0,49,0.00,,,0.00,0.00,VWS V14.00,2013-03-15 13:00:00,
2013-03-15 07:05:00,50.8,32.3,30.86,West,278,9.0,15.0,49,0.00,,,0.00,0.00,VWS V14.00,2013-03-15 13:05:00,
2013-03-15 07:10:00,50.6,32.7,30.86,NW,307,5.0,20.0,50,0.00,,,0.00,0.00,VWS V14.00,2013-03-15 13:10:00,
2013-03-15 07:15:00,50.5,33.1,30.86,West,277,11.0,20.0,51,0.00,,,0.00,0.00,VWS V14.00,2013-03-15 13:15:00,
2013-03-15 07:20:00,50.5,33.1,30.86,WNW,302,7.0,16.0,51,0.00,,,0.00,0.00,VWS V14.00,2013-03-15 13:20:00,
2013-03-15 07:25:00,50.5,32.6,30.86,WNW,287,22.0,22.0,50,0.00,,,0.00,0.00,VWS V14.00,2013-03-15 13:25:00,
2013-03-15 07:30:00,50.8,33.3,30.87,NW,318,10.0,23.0,51,0.00,,,0.00,0.00,VWS V14.00,2013-03-15 13:30:00,
2013-03-15 07:35:00,50.2,33.3,30.86,NW,306,5.0,7.0,52,0.00,,,0.00,0.00,VWS V14.00,2013-03-15 13:35:00,
2013-03-15 07:40:00,49.7,32.8,30.86,WNW,287,5.0,7.0,52,0.00,,,0.00,0.00,VWS V14.00,2013-03-15 13:40:00,
2013-03-15 07:45:00,49.4,32.5,30.87,NW,326,7.0,11.0,52,0.00,,,0.00,0.00,VWS V14.00,2013-03-15 13:45:00,
2013-03-15 07:55:00,48.7,33.3,30.88,NW,313,6.0,6.0,55,0.00,,,0.00,7.00,VWS V14.00,2013-03-15 13:55:00,
2013-03-15 08:00:00,47.9,33.4,30.88,NNW,333,4.0,10.0,57,0.00,,,0.00,11.00,VWS V14.00,2013-03-15 14:00:00,
2013-03-15 08:05:00,47.3,33.3,30.91,WNW,298,11.0,12.0,58,0.00,,,0.00,14.00,VWS V14.00,2013-03-15 14:05:00,
2013-03-15 08:10:00,47.0,33.8,30.91,WNW,303,5.0,12.0,60,0.00,,,0.00,11.00,VWS V14.00,2013-03-15 14:10:00,
2013-03-15 08:15:00,46.8,33.7,30.91,WNW,301,2.0,12.0,60,0.00,,,0.00,12.00,VWS V14.00,2013-03-15 14:15:00,
2013-03-15 08:20:00,46.7,33.2,30.90,WNW,299,3.0,5.0,59,0.00,,,0.00,12.00,VWS V14.00,2013-03-15 14:20:00,
2013-03-15 08:25:00,46.7,33.6,30.91,WNW,300,1.0,5.0,60,0.00,,,0.00,16.00,VWS V14.00,2013-03-15 14:25:00,
2013-03-15 08:30:00,46.6,33.5,30.91,WNW,300,2.0,5.0,60,0.00,,,0.00,16.00,VWS V14.00,2013-03-15 14:30:00,
2013-03-15 08:35:00,46.3,33.2,30.91,WNW,299,0.0,0.0,60,0.00,,,0.00,23.00,VWS V14.00,2013-03-15 14:35:00,
2013-03-15 08:40:00,46.1,33.0,30.91,WNW,299,0.0,2.0,60,0.00,,,0.00,28.00,VWS V14.00,2013-03-15 14:40:00,
2013-03-15 08:45:00,45.9,33.2,30.91,WNW,299,0.0,2.0,61,0.00,,,0.00,26.00,VWS V14.00,2013-03-15 14:45:00,
2013-03-15 08:50:00,45.8,33.1,30.91,WNW,299,0.0,0.0,61,0.00,,,0.00,33.00,VWS V14.00,2013-03-15 14:50:00,
2013-03-15 08:55:00,45.6,32.9,30.92,WNW,299,0.0,0.0,61,0.00,,,0.00,54.00,VWS V14.00,2013-03-15 14:55:00,
2013-03-15 09:00:00,45.6,32.9,30.91,WNW,299,0.0,0.0,61,0.00,,,0.00,44.00,VWS V14.00,2013-03-15 15:00:00,
2013-03-15 09:05:00,45.6,33.3,30.92,WNW,299,0.0,0.0,62,0.00,,,0.00,40.00,VWS V14.00,2013-03-15 15:05:00,
2013-03-15 09:10:00,45.6,33.3,30.92,WNW,299,0.0,1.0,62,0.00,,,0.00,35.00,VWS V14.00,2013-03-15 15:10:00,
2013-03-15 09:15:00,45.7,33.8,30.92,South,188,0.0,4.0,63,0.00,,,0.00,44.00,VWS V14.00,2013-03-15 15:15:00,
2013-03-15 09:20:00,45.6,33.8,30.92,South,188,0.0,0.0,63,0.00,,,0.00,44.00,VWS V14.00,2013-03-15 15:20:00,
2013-03-15 09:25:00,45.5,33.7,30.92,South,188,0.0,0.0,63,0.00,,,0.00,47.00,VWS V14.00,2013-03-15 15:25:00,
2013-03-15 09:30:00,45.5,33.2,30.93,South,188,0.0,0.0,62,0.00,,,0.00,69.00,VWS V14.00,2013-03-15 15:30:00,
2013-03-15 09:35:00,45.6,34.1,30.93,South,188,0.0,0.0,64,0.00,,,0.00,88.00,VWS V14.00,2013-03-15 15:35:00,
2013-03-15 09:40:00,45.8,35.1,30.93,South,188,1.0,1.0,66,0.00,,,0.00,83.00,VWS V14.00,2013-03-15 15:40:00,
2013-03-15 09:45:00,46.0,34.5,30.93,South,188,0.0,2.0,64,0.00,,,0.00,105.00,VWS V14.00,2013-03-15 15:45:00,
2013-03-15 09:50:00,46.3,35.2,30.93,South,188,0.0,0.0,65,0.00,,,0.00,120.00,VWS V14.00,2013-03-15 15:50:00,
2013-03-15 09:55:00,46.7,36.0,30.93,South,188,0.0,0.0,66,0.00,,,0.00,130.00,VWS V14.00,2013-03-15 15:55:00,
2013-03-15 10:00:00,47.0,35.9,30.93,South,188,0.0,0.0,65,0.00,,,0.00,149.00,VWS V14.00,2013-03-15 16:00:00,
2013-03-15 10:05:00,47.4,35.5,30.93,South,188,1.0,1.0,63,0.00,,,0.00,121.00,VWS V14.00,2013-03-15 16:05:00,
2013-03-15 10:10:00,48.2,35.0,30.93,SSE,155,4.0,5.0,60,0.00,,,0.00,169.00,VWS V14.00,2013-03-15 16:10:00,
2013-03-15 10:15:00,48.9,35.2,30.92,SSE,155,0.0,5.0,59,0.00,,,0.00,183.00,VWS V14.00,2013-03-15 16:15:00,
2013-03-15 10:20:00,49.5,35.8,30.92,WSW,252,2.0,6.0,59,0.00,,,0.00,178.00,VWS V14.00,2013-03-15 16:20:00,
2013-03-15 10:25:00,50.2,32.8,30.92,West,279,2.0,10.0,51,0.00,,,0.00,125.00,VWS V14.00,2013-03-15 16:25:00,
2013-03-15 10:30:00,50.6,33.6,30.92,WSW,250,0.0,10.0,52,0.00,,,0.00,160.00,VWS V14.00,2013-03-15 16:30:00,
2013-03-15 10:35:00,51.0,33.0,30.91,South,184,2.0,4.0,50,0.00,,,0.00,181.00,VWS V14.00,2013-03-15 16:35:00,
2013-03-15 10:40:00,51.3,33.3,30.91,WSW,254,4.0,9.0,50,0.00,,,0.00,202.00,VWS V14.00,2013-03-15 16:40:00,
2013-03-15 10:45:00,51.7,32.7,30.92,West,263,13.0,13.0,48,0.00,,,0.00,181.00,VWS V14.00,2013-03-15 16:45:00,
2013-03-15 10:50:00,51.9,32.3,30.91,West,278,5.0,11.0,47,0.00,,,0.00,178.00,VWS V14.00,2013-03-15 16:50:00,
2013-03-15 10:55:00,52.0,32.9,30.92,West,268,5.0,12.0,48,0.00,,,0.00,171.00,VWS V14.00,2013-03-15 16:55:00,
2013-03-15 11:00:00,52.2,32.6,30.92,West,272,3.0,12.0,47,0.00,,,0.00,192.00,VWS V14.00,2013-03-15 17:00:00,
2013-03-15 11:05:00,52.5,31.8,30.93,West,277,8.0,13.0,45,0.00,,,0.00,281.00,VWS V14.00,2013-03-15 17:05:00,
2013-03-15 11:10:00,53.2,33.0,30.92,West,273,10.0,17.0,46,0.00,,,0.00,555.00,VWS V14.00,2013-03-15 17:10:00,
2013-03-15 11:15:00,53.8,31.9,30.92,West,277,10.0,17.0,43,0.00,,,0.00,193.00,VWS V14.00,2013-03-15 17:15:00,
2013-03-15 11:20:00,53.9,32.5,30.92,WSW,256,12.0,13.0,44,0.00,,,0.00,606.00,VWS V14.00,2013-03-15 17:20:00,
2013-03-15 11:25:00,54.4,31.8,30.92,WNW,298,11.0,19.0,42,0.00,,,0.00,483.00,VWS V14.00,2013-03-15 17:25:00,
2013-03-15 11:30:00,54.6,31.4,30.91,West,280,13.0,19.0,41,0.00,,,0.00,248.00,VWS V14.00,2013-03-15 17:30:00,
2013-03-15 11:35:00,54.6,30.8,30.91,WNW,296,14.0,17.0,40,0.00,,,0.00,439.00,VWS V14.00,2013-03-15 17:35:00,
2013-03-15 11:40:00,54.7,30.2,30.91,WSW,250,10.0,17.0,39,0.00,,,0.00,253.00,VWS V14.00,2013-03-15 17:40:00,
2013-03-15 11:45:00,54.6,30.8,30.91,West,265,9.0,17.0,40,0.00,,,0.00,404.00,VWS V14.00,2013-03-15 17:45:00,
2013-03-15 11:50:00,54.4,30.6,30.92,WSW,257,1.0,10.0,40,0.00,,,0.00,306.00,VWS V14.00,2013-03-15 17:50:00,
2013-03-15 11:55:00,54.5,31.3,30.91,WSW,250,1.0,10.0,41,0.00,,,0.00,290.00,VWS V14.00,2013-03-15 17:55:00,
2013-03-15 12:00:00,54.6,30.8,30.91,West,265,7.0,10.0,40,0.00,,,0.00,346.00,VWS V14.00,2013-03-15 18:00:00,
2013-03-15 12:05:00,54.6,30.8,30.91,SW,221,5.0,6.0,40,0.00,,,0.00,260.00,VWS V14.00,2013-03-15 18:05:00,
2013-03-15 12:10:00,54.6,30.8,30.91,West,263,9.0,11.0,40,0.00,,,0.00,418.00,VWS V14.00,2013-03-15 18:10:00,
2013-03-15 12:15:00,54.6,30.8,30.91,West,261,12.0,17.0,40,0.00,,,0.00,568.00,VWS V14.00,2013-03-15 18:15:00,
2013-03-15 12:20:00,54.8,31.0,30.91,West,265,10.0,10.0,40,0.00,,,0.00,587.00,VWS V14.00,2013-03-15 18:20:00,
2013-03-15 12:25:00,55.1,30.6,30.91,West,262,3.0,14.0,39,0.00,,,0.00,543.00,VWS V14.00,2013-03-15 18:25:00,
2013-03-15 12:30:00,55.5,29.7,30.90,West,268,10.0,14.0,37,0.00,,,0.00,526.00,VWS V14.00,2013-03-15 18:30:00,
2013-03-15 12:35:00,55.6,29.8,30.90,SSW,207,10.0,10.0,37,0.00,,,0.00,306.00,VWS V14.00,2013-03-15 18:35:00,
2013-03-15 12:40:00,55.4,30.2,30.91,West,259,12.0,17.0,38,0.00,,,0.00,299.00,VWS V14.00,2013-03-15 18:40:00,
2013-03-15 12:45:00,54.9,29.8,30.91,West,267,9.0,17.0,38,0.00,,,0.00,271.00,VWS V14.00,2013-03-15 18:45:00,
2013-03-15 12:50:00,54.8,30.3,30.91,West,264,9.0,17.0,39,0.00,,,0.00,381.00,VWS V14.00,2013-03-15 18:50:00,
2013-03-15 12:55:00,55.0,29.2,30.91,West,268,13.0,17.0,37,0.00,,,0.00,490.00,VWS V14.00,2013-03-15 18:55:00,
2013-03-15 13:00:00,55.4,30.2,30.91,WSW,254,4.0,19.0,38,0.00,,,0.00,526.00,VWS V14.00,2013-03-15 19:00:00,
2013-03-15 13:05:00,55.3,30.1,30.91,WSW,257,11.0,13.0,38,0.00,,,0.00,320.00,VWS V14.00,2013-03-15 19:05:00,
2013-03-15 13:10:00,55.2,30.7,30.91,SW,221,9.0,16.0,39,0.00,,,0.00,582.00,VWS V14.00,2013-03-15 19:10:00,
2013-03-15 13:15:00,55.4,30.2,30.91,WSW,240,6.0,16.0,38,0.00,,,0.00,299.00,VWS V14.00,2013-03-15 19:15:00,
2013-03-15 13:20:00,55.5,31.0,30.91,West,267,11.0,14.0,39,0.00,,,0.00,306.00,VWS V14.00,2013-03-15 19:20:00,
2013-03-15 13:25:00,55.5,29.7,30.90,WSW,257,13.0,16.0,37,0.00,,,0.00,462.00,VWS V14.00,2013-03-15 19:25:00,
2013-03-15 13:30:00,55.4,29.6,30.90,West,269,6.0,16.0,37,0.00,,,0.00,292.00,VWS V14.00,2013-03-15 19:30:00,
2013-03-15 13:35:00,55.5,29.7,30.90,West,266,7.0,13.0,37,0.00,,,0.00,622.00,VWS V14.00,2013-03-15 19:35:00,
2013-03-15 13:40:00,55.9,32.0,30.89,West,281,10.0,13.0,40,0.00,,,0.00,617.00,VWS V14.00,2013-03-15 19:40:00,
2013-03-15 13:45:00,56.2,31.0,30.89,West,261,9.0,13.0,38,0.00,,,0.00,580.00,VWS V14.00,2013-03-15 19:45:00,
2013-03-15 13:50:00,56.6,32.0,30.89,West,272,6.0,9.0,39,0.00,,,0.00,545.00,VWS V14.00,2013-03-15 19:50:00,
2013-03-15 13:55:00,56.7,30.1,30.89,NNW,327,1.0,14.0,36,0.00,,,0.00,555.00,VWS V14.00,2013-03-15 19:55:00,
2013-03-15 14:00:00,56.9,30.9,30.89,WSW,257,11.0,14.0,37,0.00,,,0.00,617.00,VWS V14.00,2013-03-15 20:00:00,
2013-03-15 14:05:00,56.9,30.9,30.89,WNW,294,6.0,9.0,37,0.00,,,0.00,643.00,VWS V14.00,2013-03-15 20:05:00,
2013-03-15 14:10:00,56.9,30.9,30.88,WSW,240,4.0,17.0,37,0.00,,,0.00,680.00,VWS V14.00,2013-03-15 20:10:00,
2013-03-15 14:15:00,57.3,30.6,30.88,WSW,253,2.0,17.0,36,0.00,,,0.00,733.00,VWS V14.00,2013-03-15 20:15:00,
2013-03-15 14:20:00,57.9,31.1,30.87,WNW,285,4.0,12.0,36,0.00,,,0.00,717.00,VWS V14.00,2013-03-15 20:20:00,
2013-03-15 14:25:00,58.1,30.6,30.87,WSW,248,6.0,14.0,35,0.00,,,0.00,680.00,VWS V14.00,2013-03-15 20:25:00,
2013-03-15 14:31:00,58.3,32.2,30.86,WNW,302,13.0,14.0,37,0.00,,,0.00,670.00,VWS V14.00,2013-03-15 20:31:00,
2013-03-15 14:36:00,58.3,30.8,30.86,NW,325,13.0,17.0,35,0.00,,,0.00,700.00,VWS V14.00,2013-03-15 20:36:00,
2013-03-15 14:41:00,58.2,30.7,30.86,NW,304,14.0,17.0,35,0.00,,,0.00,679.00,VWS V14.00,2013-03-15 20:41:00,
2013-03-15 14:46:00,57.9,30.4,30.86,NW,318,8.0,17.0,35,0.00,,,0.00,513.00,VWS V14.00,2013-03-15 20:46:00,
2013-03-15 14:51:00,57.4,31.4,30.87,WNW,293,9.0,12.0,37,0.00,,,0.00,330.00,VWS V14.00,2013-03-15 20:51:00,
2013-03-15 14:56:00,57.2,29.8,30.87,West,281,5.0,12.0,35,0.00,,,0.00,513.00,VWS V14.00,2013-03-15 20:56:00,
2013-03-15 15:01:00,57.0,30.3,30.87,NW,306,10.0,15.0,36,0.00,,,0.00,517.00,VWS V14.00,2013-03-15 21:01:00,
2013-03-15 15:06:00,56.7,29.4,30.85,West,268,5.0,10.0,35,0.00,,,0.00,485.00,VWS V14.00,2013-03-15 21:06:00,
2013-03-15 15:11:00,56.6,30.6,30.85,NW,325,11.0,13.0,37,0.00,,,0.00,524.00,VWS V14.00,2013-03-15 21:11:00,
2013-03-15 15:16:00,56.6,31.3,30.85,West,273,10.0,14.0,38,0.00,,,0.00,494.00,VWS V14.00,2013-03-15 21:16:00,
2013-03-15 15:21:00,56.8,30.8,30.85,NW,315,6.0,10.0,37,0.00,,,0.00,411.00,VWS V14.00,2013-03-15 21:21:00,
2013-03-15 15:26:00,56.8,30.8,30.85,NW,313,7.0,10.0,37,0.00,,,0.00,524.00,VWS V14.00,2013-03-15 21:26:00,
2013-03-15 15:31:00,56.9,30.9,30.85,NW,309,7.0,14.0,37,0.00,,,0.00,483.00,VWS V14.00,2013-03-15 21:31:00,
2013-03-15 15:36:00,56.8,30.8,30.85,NNW,338,6.0,14.0,37,0.00,,,0.00,450.00,VWS V14.00,2013-03-15 21:36:00,
2013-03-15 15:41:00,56.6,31.3,30.85,NW,315,6.0,14.0,38,0.00,,,0.00,504.00,VWS V14.00,2013-03-15 21:41:00,
2013-03-15 15:46:00,56.8,30.8,30.85,NNW,331,9.0,15.0,37,0.00,,,0.00,422.00,VWS V14.00,2013-03-15 21:46:00,
2013-03-15 15:51:00,56.7,30.1,30.85,NW,323,6.0,10.0,36,0.00,,,0.00,408.00,VWS V14.00,2013-03-15 21:51:00,
2013-03-15 15:56:00,56.8,30.1,30.85,NNW,336,4.0,11.0,36,0.00,,,0.00,410.00,VWS V14.00,2013-03-15 21:56:00,
2013-03-15 16:01:00,56.7,30.1,30.84,NNW,327,9.0,14.0,36,0.00,,,0.00,396.00,VWS V14.00,2013-03-15 22:01:00,
2013-03-15 16:06:00,56.8,30.8,30.85,NW,309,6.0,12.0,37,0.00,,,0.00,413.00,VWS V14.00,2013-03-15 22:06:00,
2013-03-15 16:11:00,56.9,29.5,30.84,WNW,287,4.0,12.0,35,0.00,,,0.00,343.00,VWS V14.00,2013-03-15 22:11:00,
2013-03-15 16:16:00,56.9,30.2,30.84,NW,304,9.0,12.0,36,0.00,,,0.00,387.00,VWS V14.00,2013-03-15 22:16:00,
2013-03-15 16:21:00,56.9,28.8,30.84,NNW,344,6.0,15.0,34,0.00,,,0.00,410.00,VWS V14.00,2013-03-15 22:21:00,
2013-03-15 16:27:00,56.7,28.7,30.84,NW,314,11.0,15.0,34,0.00,,,0.00,350.00,VWS V14.00,2013-03-15 22:27:00,
2013-03-15 16:32:00,56.8,29.5,30.84,West,278,12.0,15.0,35,0.00,,,0.00,417.00,VWS V14.00,2013-03-15 22:32:00,
2013-03-15 16:37:00,56.8,28.8,30.84,NW,308,11.0,12.0,34,0.00,,,0.00,359.00,VWS V14.00,2013-03-15 22:37:00,
2013-03-15 16:42:00,56.6,28.6,30.84,NW,306,7.0,12.0,34,0.00,,,0.00,207.00,VWS V14.00,2013-03-15 22:42:00,
2013-03-15 16:47:00,56.5,28.5,30.84,West,276,4.0,12.0,34,0.00,,,0.00,272.00,VWS V14.00,2013-03-15 22:47:00,
2013-03-15 16:52:00,56.6,30.0,30.84,West,276,6.0,10.0,36,0.00,,,0.00,380.00,VWS V14.00,2013-03-15 22:52:00,
2013-03-15 16:57:00,56.8,28.8,30.84,WNW,284,5.0,10.0,34,0.00,,,0.00,378.00,VWS V14.00,2013-03-15 22:57:00,
2013-03-15 17:02:00,57.0,28.9,30.84,WNW,302,8.0,11.0,34,0.00,,,0.00,362.00,VWS V14.00,2013-03-15 23:02:00,
2013-03-15 17:07:00,57.1,28.3,30.83,WNW,300,6.0,12.0,33,0.00,,,0.00,360.00,VWS V14.00,2013-03-15 23:07:00,
2013-03-15 17:12:00,57.1,28.3,30.83,West,281,9.0,12.0,33,0.00,,,0.00,396.00,VWS V14.00,2013-03-15 23:12:00,
2013-03-15 17:17:00,57.3,28.5,30.83,WNW,289,8.0,13.0,33,0.00,,,0.00,388.00,VWS V14.00,2013-03-15 23:17:00,
2013-03-15 17:22:00,57.4,28.5,30.83,West,262,4.0,6.0,33,0.00,,,0.00,359.00,VWS V14.00,2013-03-15 23:22:00,
2013-03-15 17:27:00,57.5,27.9,30.81,West,259,3.0,9.0,32,0.00,,,0.00,359.00,VWS V14.00,2013-03-15 23:27:00,
2013-03-15 17:32:00,57.6,28.7,30.81,West,281,2.0,9.0,33,0.00,,,0.00,323.00,VWS V14.00,2013-03-15 23:32:00,
2013-03-15 17:37:00,57.8,30.4,30.81,West,278,3.0,12.0,35,0.00,,,0.00,301.00,VWS V14.00,2013-03-15 23:37:00,
2013-03-15 17:42:00,57.8,28.9,30.82,NW,306,4.0,12.0,33,0.00,,,0.00,304.00,VWS V14.00,2013-03-15 23:42:00,
2013-03-15 17:47:00,57.7,29.5,30.81,NW,307,7.0,12.0,34,0.00,,,0.00,281.00,VWS V14.00,2013-03-15 23:47:00,
2013-03-15 17:52:00,57.5,28.6,30.81,NW,314,5.0,6.0,33,0.00,,,0.00,276.00,VWS V14.00,2013-03-15 23:52:00,
2013-03-15 17:57:00,57.3,28.5,30.82,West,264,3.0,10.0,33,0.00,,,0.00,258.00,VWS V14.00,2013-03-15 23:57:00,
2013-03-15 18:02:00,57.3,27.7,30.82,WSW,256,5.0,10.0,32,0.00,,,0.00,250.00,VWS V14.00,2013-03-16 00:02:00,
2013-03-15 18:07:00,57.3,28.5,30.82,WSW,252,4.0,4.0,33,0.00,,,0.00,225.00,VWS V14.00,2013-03-16 00:07:00,
2013-03-15 18:12:00,57.4,28.5,30.82,West,269,0.0,7.0,33,0.00,,,0.00,111.00,VWS V14.00,2013-03-16 00:12:00,
2013-03-15 18:17:00,57.3,28.5,30.82,WNW,298,5.0,10.0,33,0.00,,,0.00,171.00,VWS V14.00,2013-03-16 00:17:00,
2013-03-15 18:22:00,56.9,28.1,30.82,NW,313,4.0,8.0,33,0.00,,,0.00,169.00,VWS V14.00,2013-03-16 00:22:00,
2013-03-15 18:27:00,56.6,27.9,30.82,NW,306,0.0,8.0,33,0.00,,,0.00,137.00,VWS V14.00,2013-03-16 00:27:00,
2013-03-15 18:32:00,56.4,29.1,30.82,NW,315,2.0,8.0,35,0.00,,,0.00,135.00,VWS V14.00,2013-03-16 00:32:00,
2013-03-15 18:37:00,55.9,28.7,30.83,NW,304,6.0,10.0,35,0.00,,,0.00,90.00,VWS V14.00,2013-03-16 00:37:00,
2013-03-15 18:42:00,55.2,28.7,30.83,NW,317,6.0,10.0,36,0.00,,,0.00,86.00,VWS V14.00,2013-03-16 00:42:00,
2013-03-15 18:47:00,54.5,28.8,30.83,NW,304,4.0,10.0,37,0.00,,,0.00,77.00,VWS V14.00,2013-03-16 00:47:00,
2013-03-15 18:52:00,53.9,28.9,30.84,NNW,327,4.0,14.0,38,0.00,,,0.00,58.00,VWS V14.00,2013-03-16 00:52:00,
2013-03-15 18:57:00,53.5,28.5,30.84,NW,306,5.0,14.0,38,0.00,,,0.00,46.00,VWS V14.00,2013-03-16 00:57:00,
2013-03-15 19:02:00,53.1,29.4,30.84,NW,309,3.0,14.0,40,0.00,,,0.00,37.00,VWS V14.00,2013-03-16 01:02:00,
2013-03-15 19:07:00,52.6,29.6,30.86,NW,314,2.0,6.0,41,0.00,,,0.00,30.00,VWS V14.00,2013-03-16 01:07:00,
2013-03-15 19:12:00,52.1,29.1,30.88,NW,319,1.0,6.0,41,0.00,,,0.00,25.00,VWS V14.00,2013-03-16 01:12:00,
2013-03-15 19:17:00,51.6,29.3,30.88,NW,318,2.0,6.0,42,0.00,,,0.00,19.00,VWS V14.00,2013-03-16 01:17:00,
2013-03-15 19:22:00,51.2,28.9,30.88,NW,319,0.0,1.0,42,0.00,,,0.00,16.00,VWS V14.00,2013-03-16 01:22:00,
2013-03-15 19:27:00,51.0,28.7,30.88,NW,319,0.0,1.0,42,0.00,,,0.00,11.00,VWS V14.00,2013-03-16 01:27:00,
2013-03-15 19:32:00,50.7,28.5,30.88,NW,318,0.0,1.0,42,0.00,,,0.00,7.00,VWS V14.00,2013-03-16 01:32:00,
2013-03-15 19:37:00,50.4,28.8,30.89,NW,319,2.0,2.0,43,0.00,,,0.00,0.00,VWS V14.00,2013-03-16 01:37:00,
2013-03-15 19:42:00,50.1,28.5,30.89,NW,319,1.0,2.0,43,0.00,,,0.00,0.00,VWS V14.00,2013-03-16 01:42:00,
2013-03-15 19:47:00,49.9,28.3,30.89,NW,319,0.0,2.0,43,0.00,,,0.00,0.00,VWS V14.00,2013-03-16 01:47:00,
2013-03-15 19:52:00,49.5,28.5,30.89,NW,318,0.0,0.0,44,0.00,,,0.00,0.00,VWS V14.00,2013-03-16 01:52:00,
2013-03-15 19:57:00,49.2,28.8,30.89,NW,319,0.0,3.0,45,0.00,,,0.00,0.00,VWS V14.00,2013-03-16 01:57:00,
2013-03-15 20:02:00,48.8,29.0,30.89,NW,318,0.0,3.0,46,0.00,,,0.00,0.00,VWS V14.00,2013-03-16 02:02:00,
2013-03-15 20:07:00,48.7,29.4,30.90,NW,318,0.0,0.0,47,0.00,,,0.00,0.00,VWS V14.00,2013-03-16 02:07:00,
2013-03-15 20:12:00,48.6,29.3,30.90,NW,319,0.0,1.0,47,0.00,,,0.00,0.00,VWS V14.00,2013-03-16 02:12:00,
2013-03-15 20:17:00,48.5,29.2,30.90,NW,319,0.0,1.0,47,0.00,,,0.00,0.00,VWS V14.00,2013-03-16 02:17:00,
2013-03-15 20:22:00,48.2,29.5,30.91,NW,318,0.0,0.0,48,0.00,,,0.00,0.00,VWS V14.00,2013-03-16 02:22:00,
2013-03-15 20:27:00,47.7,29.5,30.91,NW,318,0.0,4.0,49,0.00,,,0.00,0.00,VWS V14.00,2013-03-16 02:27:00,
2013-03-15 20:32:00,46.3,29.2,30.92,NW,319,0.0,4.0,51,0.00,,,0.00,0.00,VWS V14.00,2013-03-16 02:32:00,
2013-03-15 20:37:00,45.4,29.3,30.93,NW,318,0.0,3.0,53,0.00,,,0.00,0.00,VWS V14.00,2013-03-16 02:37:00,
2013-03-15 20:42:00,44.5,29.4,30.93,NW,318,0.0,3.0,55,0.00,,,0.00,0.00,VWS V14.00,2013-03-16 02:42:00,
2013-03-15 20:47:00,44.1,29.0,30.93,NW,319,0.0,3.0,55,0.00,,,0.00,0.00,VWS V14.00,2013-03-16 02:47:00,
2013-03-15 20:52:00,43.7,29.0,30.92,NW,319,0.0,0.0,56,0.00,,,0.00,0.00,VWS V14.00,2013-03-16 02:52:00,
2013-03-15 20:57:00,43.5,29.3,30.92,NW,319,0.0,2.0,57,0.00,,,0.00,0.00,VWS V14.00,2013-03-16 02:57:00,
2013-03-15 21:02:00,43.2,29.4,30.93,NW,318,0.0,3.0,58,0.00,,,0.00,0.00,VWS V14.00,2013-03-16 03:02:00,
2013-03-15 21:07:00,43.0,29.2,30.93,NW,318,0.0,0.0,58,0.00,,,0.00,0.00,VWS V14.00,2013-03-16 03:07:00,
2013-03-15 21:12:00,42.9,29.2,30.93,NW,318,0.0,1.0,58,0.00,,,0.00,0.00,VWS V14.00,2013-03-16 03:12:00,
2013-03-15 21:17:00,43.0,29.2,30.93,NW,318,0.0,1.0,58,0.00,,,0.00,0.00,VWS V14.00,2013-03-16 03:17:00,
2013-03-15 21:22:00,43.0,29.7,30.93,NW,319,0.0,0.0,59,0.00,,,0.00,0.00,VWS V14.00,2013-03-16 03:22:00,
2013-03-15 21:27:00,42.6,28.9,30.93,NW,318,0.0,0.0,58,0.00,,,0.00,0.00,VWS V14.00,2013-03-16 03:27:00,
2013-03-15 21:32:00,42.2,28.9,30.94,NW,318,0.0,0.0,59,0.00,,,0.00,0.00,VWS V14.00,2013-03-16 03:32:00,
2013-03-15 21:37:00,41.9,28.6,30.94,NW,318,0.0,0.0,59,0.00,,,0.00,0.00,VWS V14.00,2013-03-16 03:37:00,
2013-03-15 21:43:00,41.7,28.4,30.94,NW,318,0.0,0.0,59,0.00,,,0.00,0.00,VWS V14.00,2013-03-16 03:43:00,
2013-03-15 21:48:00,41.6,28.8,30.94,NW,318,1.0,2.0,60,0.00,,,0.00,0.00,VWS V14.00,2013-03-16 03:48:00,
2013-03-15 21:53:00,41.4,28.6,30.94,NW,319,0.0,0.0,60,0.00,,,0.00,0.00,VWS V14.00,2013-03-16 03:53:00,
2013-03-15 21:58:00,41.2,28.8,30.93,NW,319,0.0,0.0,61,0.00,,,0.00,0.00,VWS V14.00,2013-03-16 03:58:00,
2013-03-15 22:00:00,41.1,28.7,30.94,NW,319,0.0,0.0,61,0.00,,,0.00,0.00,VWS V14.00,2013-03-16 04:00:00,
2013-03-15 22:05:00,40.9,28.9,30.94,NW,319,0.0,0.0,62,0.00,,,0.00,0.00,VWS V14.00,2013-03-16 04:05:00,
2013-03-15 22:10:00,40.7,28.7,30.92,NW,318,0.0,0.0,62,0.00,,,0.00,0.00,VWS V14.00,2013-03-16 04:10:00,
2013-03-15 22:15:00,40.2,28.2,30.92,NW,319,1.0,2.0,62,0.00,,,0.00,0.00,VWS V14.00,2013-03-16 04:15:00,
2013-03-15 22:20:00,39.8,28.6,30.92,NW,318,0.0,0.0,64,0.00,,,0.00,0.00,VWS V14.00,2013-03-16 04:20:00,
2013-03-15 22:25:00,39.8,28.6,30.92,NW,319,0.0,0.0,64,0.00,,,0.00,0.00,VWS V14.00,2013-03-16 04:25:00,
2013-03-15 22:30:00,39.7,28.5,30.92,NW,319,0.0,2.0,64,0.00,,,0.00,0.00,VWS V14.00,2013-03-16 04:30:00,
2013-03-15 22:35:00,39.6,28.8,30.92,NW,319,0.0,0.0,65,0.00,,,0.00,0.00,VWS V14.00,2013-03-16 04:35:00,
2013-03-15 22:40:00,39.7,28.9,30.92,NW,319,0.0,0.0,65,0.00,,,0.00,0.00,VWS V14.00,2013-03-16 04:40:00,
2013-03-15 22:45:00,39.7,28.9,30.92,NW,319,0.0,0.0,65,0.00,,,0.00,0.00,VWS V14.00,2013-03-16 04:45:00,
2013-03-15 22:50:00,39.6,28.1,30.92,South,186,1.0,2.0,63,0.00,,,0.00,0.00,VWS V14.00,2013-03-16 04:50:00,
2013-03-15 22:55:00,39.3,28.5,30.93,South,186,0.0,2.0,65,0.00,,,0.00,0.00,VWS V14.00,2013-03-16 04:55:00,
2013-03-15 23:00:00,39.1,28.7,30.93,South,186,0.0,2.0,66,0.00,,,0.00,0.00,VWS V14.00,2013-03-16 05:00:00,
2013-03-15 23:05:00,38.9,28.9,30.91,South,186,0.0,0.0,67,0.00,,,0.00,0.00,VWS V14.00,2013-03-16 05:05:00,
2013-03-15 23:10:00,38.9,28.9,30.91,South,186,0.0,0.0,67,0.00,,,0.00,0.00,VWS V14.00,2013-03-16 05:10:00,
2013-03-15 23:15:00,38.9,28.9,30.91,South,187,0.0,0.0,67,0.00,,,0.00,0.00,VWS V14.00,2013-03-16 05:15:00,
2013-03-15 23:20:00,39.1,29.1,30.91,South,186,0.0,0.0,67,0.00,,,0.00,0.00,VWS V14.00,2013-03-16 05:20:00,
2013-03-15 23:25:00,39.4,29.4,30.91,South,186,0.0,0.0,67,0.00,,,0.00,0.00,VWS V14.00,2013-03-16 05:25:00,
2013-03-15 23:30:00,39.6,29.2,30.91,South,186,0.0,0.0,66,0.00,,,0.00,0.00,VWS V14.00,2013-03-16 05:30:00,
2013-03-15 23:35:00,39.7,29.3,30.91,South,186,0.0,0.0,66,0.00,,,0.00,0.00,VWS V14.00,2013-03-16 05:35:00,
2013-03-15 23:40:00,39.8,29.4,30.91,South,186,0.0,0.0,66,0.00,,,0.00,0.00,VWS V14.00,2013-03-16 05:40:00,
2013-03-15 23:45:00,39.9,29.5,30.91,South,186,0.0,0.0,66,0.00,,,0.00,0.00,VWS V14.00,2013-03-16 05:45:00,
2013-03-15 23:50:00,39.9,29.5,30.91,South,186,0.0,0.0,66,0.00,,,0.00,0.00,VWS V14.00,2013-03-16 05:50:00,
2013-03-15 23:55:00,39.8,29.4,30.91,South,186,2.0,2.0,66,0.00,,,0.00,0.00,VWS V14.00,2013-03-16 05:55:00,